Time;durP1;ratioP1;P1;durP2;ratioP2;P2;SDS_P1;SDS_P2;PMS_P1;PMS_P2;Temp;Humidity;BMP_temperature;BMP_pressure;BME280_temperature;BME280_humidity;BME280_pressure;Samples;Min_cycle;Max_cycle;Signal;HPM_P1;HPM_P2
2023/06/04 00:02:13;;;;;;;4.40;2.40;;;21.00;62.00;;;;;;6247537;28;20068;-71
2023/06/04 00:05:14;;;;;;;4.43;2.40;;;21.00;62.10;;;;;;6245919;28;20450;-70
2023/06/04 00:08:15;;;;;;;4.47;2.17;;;21.00;62.30;;;;;;6244980;28;20037;-70
2023/06/04 00:11:15;;;;;;;6.10;1.63;;;21.00;62.50;;;;;;6240812;28;20037;-71
2023/06/04 00:14:16;;;;;;;2.72;1.98;;;21.00;62.70;;;;;;6241184;28;20033;-71
2023/06/04 00:17:17;;;;;;;3.13;1.95;;;20.90;62.70;;;;;;6242624;28;20030;-71
2023/06/04 00:20:18;;;;;;;3.22;2.35;;;20.90;62.80;;;;;;6244105;28;20095;-71
2023/06/04 00:23:19;;;;;;;4.38;2.53;;;20.80;62.90;;;;;;6240461;28;20033;-71
2023/06/04 00:26:20;;;;;;;3.58;2.30;;;20.80;63.10;;;;;;6242427;28;20032;-70
2023/06/04 00:29:22;;;;;;;5.15;2.90;;;20.80;63.30;;;;;;6240526;28;20041;-71
2023/06/04 00:32:23;;;;;;;3.15;2.28;;;20.70;63.50;;;;;;6223725;28;20485;-71
2023/06/04 00:35:24;;;;;;;3.50;2.22;;;20.70;63.70;;;;;;6240175;28;20497;-71
2023/06/04 00:38:25;;;;;;;5.68;2.42;;;20.60;63.80;;;;;;6241855;28;20165;-70
2023/06/04 00:41:26;;;;;;;4.53;2.53;;;20.60;63.90;;;;;;6239830;28;20604;-70
2023/06/04 00:44:28;;;;;;;5.93;2.20;;;20.60;64.80;;;;;;6240647;28;20149;-70
2023/06/04 00:47:29;;;;;;;7.70;2.80;;;20.60;64.00;;;;;;6241867;28;20036;-71
2023/06/04 00:50:30;;;;;;;2.80;2.15;;;20.60;64.10;;;;;;6223279;28;20041;-71
2023/06/04 00:53:31;;;;;;;3.95;2.40;;;20.50;64.10;;;;;;6239455;28;20037;-71
2023/06/04 00:56:32;;;;;;;4.05;2.72;;;20.60;64.10;;;;;;6241389;28;20025;-71
2023/06/04 00:59:33;;;;;;;4.38;2.60;;;20.50;64.20;;;;;;6239649;28;20436;-70
2023/06/04 01:02:37;;;;;;;8.35;4.25;;;20.60;64.60;;;;;;6239640;28;20109;-70
2023/06/04 01:05:47;;;;;;;11.50;3.75;;;20.50;64.80;;;;;;6223629;28;20116;-71
2023/06/04 01:08:54;;;;;;;4.53;3.00;;;20.50;65.10;;;;;;6240026;28;20341;-69
2023/06/04 01:11:58;;;;;;;7.47;3.40;;;20.50;65.40;;;;;;6239840;28;20033;-70
2023/06/04 01:14:58;;;;;;;3.33;2.33;;;20.40;65.40;;;;;;6241279;28;20025;-72
2023/06/04 01:18:03;;;;;;;4.70;3.13;;;20.30;65.50;;;;;;6239383;28;20033;-71
2023/06/04 01:21:09;;;;;;;5.95;3.00;;;20.30;65.60;;;;;;6238746;28;20048;-69
2023/06/04 01:24:10;;;;;;;6.60;2.50;;;20.20;65.70;;;;;;6240199;28;20123;-70
2023/06/04 01:27:12;;;;;;;4.80;2.33;;;20.20;65.70;;;;;;6240497;28;20025;-70
2023/06/04 01:30:13;;;;;;;7.70;2.90;;;20.20;65.70;;;;;;6239102;28;20044;-70
2023/06/04 01:33:17;;;;;;;3.42;2.22;;;20.20;65.60;;;;;;6240119;28;20033;-70
2023/06/04 01:36:17;;;;;;;3.92;2.22;;;20.30;65.50;;;;;;6238830;28;20045;-70
2023/06/04 01:39:18;;;;;;;4.65;2.50;;;20.30;65.40;;;;;;6222494;28;20803;-70
2023/06/04 01:42:20;;;;;;;8.57;2.90;;;20.30;65.30;;;;;;6238162;28;20124;-71
2023/06/04 01:45:22;;;;;;;2.67;2.17;;;20.30;65.20;;;;;;6241084;28;20026;-70
2023/06/04 01:48:22;;;;;;;6.28;2.85;;;20.30;65.10;;;;;;6238266;28;20057;-70
2023/06/04 01:51:23;;;;;;;5.28;2.42;;;20.30;65.80;;;;;;6238083;28;20036;-71
2023/06/04 01:54:25;;;;;;;3.90;2.55;;;20.40;65.00;;;;;;6238290;28;20343;-71
2023/06/04 01:57:26;;;;;;;5.78;2.85;;;20.20;64.80;;;;;;6238640;28;20393;-70
2023/06/04 02:00:27;;;;;;;6.35;3.00;;;20.20;64.90;;;;;;6238549;28;20053;-70
2023/06/04 02:03:32;;;;;;;5.10;2.70;;;20.30;64.90;;;;;;6239918;28;20395;-71
2023/06/04 02:06:33;;;;;;;5.40;2.85;;;20.20;64.90;;;;;;6238654;28;20033;-71
2023/06/04 02:09:35;;;;;;;5.45;2.75;;;20.20;64.90;;;;;;6238546;28;20082;-71
2023/06/04 02:12:40;;;;;;;6.35;2.83;;;20.20;65.00;;;;;;6239421;28;20508;-70
2023/06/04 02:15:41;;;;;;;4.47;2.70;;;20.20;64.90;;;;;;6239810;28;20044;-70
2023/06/04 02:18:42;;;;;;;11.68;3.05;;;20.20;64.90;;;;;;6239363;28;20523;-70
2023/06/04 02:21:43;;;;;;;11.02;2.60;;;20.20;64.80;;;;;;6239015;28;20065;-69
2023/06/04 02:24:44;;;;;;;6.78;2.80;;;20.20;64.90;;;;;;6229539;28;20393;-71
2023/06/04 02:27:45;;;;;;;6.13;2.75;;;20.20;64.90;;;;;;6234215;28;20500;-71
2023/06/04 02:30:46;;;;;;;6.35;2.90;;;20.20;64.90;;;;;;6221615;28;20026;-72
2023/06/04 02:33:47;;;;;;;8.90;2.80;;;20.10;64.90;;;;;;6229287;28;20479;-72
2023/06/04 02:36:50;;;;;;;10.68;2.30;;;20.20;65.00;;;;;;6215508;28;20116;-70
2023/06/04 02:39:51;;;;;;;3.88;2.42;;;20.10;64.90;;;;;;6220497;28;20125;-71
2023/06/04 02:42:55;;;;;;;5.85;2.33;;;20.10;65.00;;;;;;6216462;28;20041;-70
2023/06/04 02:45:56;;;;;;;6.03;2.20;;;20.10;65.10;;;;;;6215006;28;20022;-72
2023/06/04 02:48:57;;;;;;;3.38;2.20;;;20.00;65.20;;;;;;6212688;28;20042;-71
2023/06/04 02:51:58;;;;;;;5.18;2.60;;;20.00;65.30;;;;;;6220397;28;20034;-70
2023/06/04 02:54:59;;;;;;;9.75;2.45;;;20.00;65.40;;;;;;6236851;28;20036;-70
2023/06/04 02:58:00;;;;;;;6.25;2.25;;;20.00;65.40;;;;;;6238492;28;20105;-70
2023/06/04 03:01:01;;;;;;;3.10;2.15;;;20.00;65.40;;;;;;6238630;28;20362;-71
2023/06/04 03:04:09;;;;;;;7.60;2.53;;;19.90;65.30;;;;;;6237017;28;20036;-71
2023/06/04 03:07:11;;;;;;;5.18;2.92;;;20.00;65.50;;;;;;6237223;28;20121;-71
2023/06/04 03:10:14;;;;;;;4.32;2.50;;;19.90;65.60;;;;;;6238542;28;20030;-71
2023/06/04 03:13:15;;;;;;;3.92;3.05;;;19.90;65.70;;;;;;6236606;28;20068;-71
2023/06/04 03:16:15;;;;;;;5.55;2.30;;;19.90;65.80;;;;;;6236805;28;20458;-70
2023/06/04 03:19:16;;;;;;;3.53;2.50;;;19.90;65.90;;;;;;6236771;28;20057;-71
2023/06/04 03:22:17;;;;;;;3.80;2.28;;;19.90;65.90;;;;;;6238079;28;20113;-72
2023/06/04 03:25:18;;;;;;;4.22;2.25;;;19.90;65.90;;;;;;6238172;28;20022;-71
2023/06/04 03:28:19;;;;;;;4.47;2.67;;;19.80;65.60;;;;;;6236776;28;20141;-71
2023/06/04 03:31:20;;;;;;;6.80;2.75;;;19.80;65.70;;;;;;6220298;28;20510;-71
2023/06/04 03:34:24;;;;;;;9.48;2.40;;;19.70;65.90;;;;;;6228552;28;20034;-71
2023/06/04 03:37:26;;;;;;;8.52;2.25;;;19.70;66.00;;;;;;6212410;28;20565;-70
2023/06/04 03:40:27;;;;;;;5.47;2.40;;;19.70;66.20;;;;;;6213900;28;20029;-70
2023/06/04 03:43:28;;;;;;;9.85;3.00;;;19.70;66.30;;;;;;6212765;28;20054;-70
2023/06/04 03:46:35;;;;;;;5.95;2.78;;;19.70;66.40;;;;;;6216832;28;20545;-70
2023/06/04 03:49:36;;;;;;;5.93;2.65;;;19.70;66.40;;;;;;6201080;28;20061;-70
2023/06/04 03:52:37;;;;;;;3.70;2.58;;;19.70;66.40;;;;;;6231790;28;20385;-71
2023/06/04 03:55:39;;;;;;;3.80;2.20;;;19.80;66.40;;;;;;6241646;28;20115;-72
2023/06/04 03:58:42;;;;;;;3.70;2.80;;;19.80;66.20;;;;;;6225244;28;20036;-71
2023/06/04 04:01:44;;;;;;;4.22;2.70;;;19.80;66.00;;;;;;6241394;28;20072;-70
2023/06/04 04:04:45;;;;;;;5.18;3.13;;;19.80;65.90;;;;;;6241286;28;20641;-70
2023/06/04 04:07:47;;;;;;;4.38;2.63;;;19.90;65.90;;;;;;6241452;28;20040;-71
2023/06/04 04:10:49;;;;;;;4.50;2.78;;;19.90;65.80;;;;;;6241054;28;20041;-71
2023/06/04 04:13:50;;;;;;;4.85;2.97;;;19.90;65.70;;;;;;6241037;28;20068;-69
2023/06/04 04:16:51;;;;;;;4.68;2.92;;;19.90;65.70;;;;;;6240635;28;20036;-71
2023/06/04 04:19:52;;;;;;;3.22;2.50;;;19.90;65.60;;;;;;6240816;28;20590;-71
2023/06/04 04:22:53;;;;;;;3.35;2.30;;;19.90;65.40;;;;;;6240793;28;20038;-70
2023/06/04 04:25:58;;;;;;;4.88;2.75;;;19.90;65.50;;;;;;6224481;28;20033;-71
2023/06/04 04:28:59;;;;;;;4.43;2.78;;;19.90;65.50;;;;;;6242382;28;20037;-71
2023/06/04 04:32:10;;;;;;;4.72;2.70;;;19.90;65.50;;;;;;6224429;28;20036;-71
2023/06/04 04:35:12;;;;;;;7.97;2.88;;;19.90;65.50;;;;;;6240503;28;20029;-71
2023/06/04 04:38:17;;;;;;;4.38;2.88;;;19.90;65.40;;;;;;6240768;28;20025;-71
2023/06/04 04:41:25;;;;;;;4.53;2.55;;;19.90;65.40;;;;;;6240525;28;20050;-71
2023/06/04 04:44:28;;;;;;;8.27;3.08;;;19.90;65.20;;;;;;6240311;28;20514;-70
2023/06/04 04:47:29;;;;;;;4.53;2.28;;;19.90;65.00;;;;;;6240345;28;20543;-72
2023/06/04 04:50:31;;;;;;;4.97;2.35;;;19.90;64.90;;;;;;6240356;28;20029;-70
2023/06/04 04:53:33;;;;;;;5.18;2.40;;;19.90;65.50;;;;;;6218585;28;20034;-72
2023/06/04 04:56:35;;;;;;;4.22;2.58;;;20.00;64.50;;;;;;6224806;28;20025;-71
2023/06/04 04:59:36;;;;;;;5.45;2.22;;;20.00;64.20;;;;;;6239995;28;20120;-71
2023/06/04 05:02:37;;;;;;;4.40;2.55;;;20.00;63.90;;;;;;6239547;28;20045;-71
2023/06/04 05:05:39;;;;;;;7.10;3.20;;;20.00;63.70;;;;;;6239707;28;20037;-71
2023/06/04 05:08:42;;;;;;;3.83;2.55;;;20.00;63.40;;;;;;6239758;28;20025;-70
2023/06/04 05:11:43;;;;;;;4.13;2.08;;;20.00;63.20;;;;;;6239403;28;20044;-70
2023/06/04 05:14:45;;;;;;;6.55;2.33;;;20.00;63.00;;;;;;6239812;28;20025;-70
2023/06/04 05:17:47;;;;;;;7.47;2.33;;;20.00;62.80;;;;;;6239508;28;20144;-72
2023/06/04 05:20:49;;;;;;;3.42;2.40;;;20.10;62.80;;;;;;6239515;28;20076;-70
2023/06/04 05:23:50;;;;;;;3.78;2.53;;;20.00;62.50;;;;;;6239044;28;20037;-71
2023/06/04 05:26:57;;;;;;;4.25;2.65;;;20.10;62.40;;;;;;6239352;28;20033;-71
2023/06/04 05:30:01;;;;;;;3.88;2.47;;;20.00;62.30;;;;;;6239507;28;20045;-71
2023/06/04 05:33:02;;;;;;;3.80;2.30;;;20.10;62.40;;;;;;6230576;28;20038;-71
2023/06/04 05:36:03;;;;;;;3.75;2.30;;;20.10;62.40;;;;;;6231219;28;20034;-69
2023/06/04 05:39:10;;;;;;;4.88;2.97;;;20.10;62.40;;;;;;6214314;28;20033;-70
2023/06/04 05:42:35;;;;;;;9.00;2.80;;;20.10;62.30;;;;;;6214302;28;20037;-70
2023/06/04 05:45:36;;;;;;;7.35;3.00;;;20.20;62.30;;;;;;6214063;28;20100;-71
2023/06/04 05:48:37;;;;;;;3.55;2.47;;;20.20;62.50;;;;;;6214265;28;20082;-71
2023/06/04 05:51:38;;;;;;;4.18;2.40;;;20.20;62.50;;;;;;6220709;28;20048;-71
2023/06/04 05:54:39;;;;;;;3.92;2.25;;;20.20;62.10;;;;;;6238559;28;20053;-70
2023/06/04 05:57:42;;;;;;;5.05;1.95;;;20.30;61.90;;;;;;6222174;28;20037;-70
2023/06/04 06:00:44;;;;;;;6.13;2.85;;;20.20;61.70;;;;;;6238652;28;20502;-71
2023/06/04 06:03:45;;;;;;;5.57;2.60;;;20.20;61.40;;;;;;6238014;28;20018;-70
2023/06/04 06:06:48;;;;;;;8.30;2.65;;;20.30;61.30;;;;;;6238945;28;20532;-70
2023/06/04 06:09:49;;;;;;;3.92;2.40;;;20.30;61.20;;;;;;6238643;28;20128;-71
2023/06/04 06:12:50;;;;;;;4.05;2.33;;;20.40;61.10;;;;;;6242277;28;20147;-70
2023/06/04 06:15:52;;;;;;;3.95;2.25;;;20.40;61.10;;;;;;6241759;28;20072;-71
2023/06/04 06:18:53;;;;;;;8.35;2.28;;;20.50;60.70;;;;;;6239513;28;20083;-73
2023/06/04 06:21:55;;;;;;;3.58;2.28;;;20.60;60.40;;;;;;6237811;28;20113;-71
2023/06/04 06:24:56;;;;;;;5.38;2.38;;;20.60;60.00;;;;;;6238127;28;20029;-71
2023/06/04 06:27:57;;;;;;;5.28;2.47;;;20.90;59.80;;;;;;6239411;28;20469;-69
2023/06/04 06:31:00;;;;;;;6.47;2.53;;;21.00;59.60;;;;;;6238065;28;20033;-71
2023/06/04 06:34:01;;;;;;;3.13;2.08;;;21.10;59.30;;;;;;6238900;28;20021;-71
2023/06/04 06:37:01;;;;;;;2.78;1.98;;;21.20;59.10;;;;;;6221197;28;20030;-72
2023/06/04 06:40:03;;;;;;;2.42;1.75;;;21.40;58.80;;;;;;6237551;28;20638;-71
2023/06/04 06:43:04;;;;;;;11.10;2.17;;;21.50;58.50;;;;;;6220710;28;20049;-72
2023/06/04 06:46:05;;;;;;;3.92;2.10;;;21.50;58.20;;;;;;6239061;28;20037;-70
2023/06/04 06:49:06;;;;;;;4.38;2.15;;;21.60;58.00;;;;;;6238840;28;20067;-70
2023/06/04 06:52:07;;;;;;;3.13;2.17;;;21.60;58.00;;;;;;6227582;28;20055;-71
2023/06/04 06:55:08;;;;;;;5.88;2.70;;;21.70;58.00;;;;;;6214712;28;20034;-70
2023/06/04 06:58:09;;;;;;;4.25;2.50;;;21.80;57.80;;;;;;6236959;28;20056;-72
2023/06/04 07:01:10;;;;;;;6.50;2.50;;;21.80;57.60;;;;;;6237438;28;20208;-71
2023/06/04 07:04:12;;;;;;;3.58;2.25;;;21.90;57.50;;;;;;6238908;28;20049;-71
2023/06/04 07:07:12;;;;;;;3.78;2.55;;;21.90;57.50;;;;;;6238863;28;20089;-71
2023/06/04 07:10:13;;;;;;;6.28;2.50;;;22.00;57.30;;;;;;6237644;28;20047;-71
2023/06/04 07:13:15;;;;;;;5.75;2.75;;;22.20;57.20;;;;;;6238860;28;20184;-72
2023/06/04 07:16:16;;;;;;;12.13;2.20;;;22.20;56.90;;;;;;6237468;28;20537;-71
2023/06/04 07:19:17;;;;;;;3.28;2.42;;;22.30;56.70;;;;;;6239618;28;20133;-71
2023/06/04 07:22:18;;;;;;;3.97;2.63;;;22.40;56.60;;;;;;6243101;28;20034;-71
2023/06/04 07:25:19;;;;;;;4.57;2.83;;;22.50;56.50;;;;;;6241953;28;20752;-71
2023/06/04 07:28:20;;;;;;;3.80;2.17;;;22.60;56.30;;;;;;6243179;28;20630;-71
2023/06/04 07:31:21;;;;;;;3.25;2.15;;;22.70;56.10;;;;;;6241803;28;20037;-71
2023/06/04 07:34:22;;;;;;;6.28;2.42;;;22.90;55.90;;;;;;6243782;28;20355;-72
2023/06/04 07:37:23;;;;;;;2.97;2.28;;;23.10;55.80;;;;;;6243690;28;20041;-71
2023/06/04 07:40:24;;;;;;;4.68;2.78;;;23.20;55.60;;;;;;6243207;28;20084;-71
2023/06/04 07:43:25;;;;;;;4.85;1.92;;;23.40;55.20;;;;;;6241651;28;20026;-71
2023/06/04 07:46:25;;;;;;;4.20;2.63;;;23.60;54.90;;;;;;6243203;28;20026;-72
2023/06/04 07:49:26;;;;;;;5.25;2.17;;;23.60;54.60;;;;;;6242951;28;20467;-71
2023/06/04 07:52:27;;;;;;;6.45;2.88;;;23.80;54.30;;;;;;6242677;28;20421;-70
2023/06/04 07:55:28;;;;;;;4.00;2.30;;;24.00;54.10;;;;;;6241452;28;20033;-72
2023/06/04 07:58:29;;;;;;;3.50;2.22;;;24.10;53.80;;;;;;6241394;28;20033;-72
2023/06/04 08:01:30;;;;;;;3.47;2.05;;;24.30;53.40;;;;;;6241729;28;20167;-71
2023/06/04 08:04:31;;;;;;;4.95;2.00;;;24.40;52.90;;;;;;6241773;28;20033;-72
2023/06/04 08:07:32;;;;;;;3.05;1.90;;;24.50;52.50;;;;;;6243261;28;20025;-72
2023/06/04 08:10:33;;;;;;;4.45;2.33;;;24.60;52.00;;;;;;6241439;28;20037;-70
2023/06/04 08:13:34;;;;;;;3.45;2.17;;;24.80;51.80;;;;;;6242822;28;20793;-72
2023/06/04 08:16:34;;;;;;;4.82;2.78;;;24.90;51.20;;;;;;6241467;28;20110;-71
2023/06/04 08:19:35;;;;;;;5.95;2.45;;;24.90;51.10;;;;;;6242660;28;20052;-73
2023/06/04 08:22:36;;;;;;;4.60;2.10;;;25.00;51.20;;;;;;6242317;28;20058;-71
2023/06/04 08:25:37;;;;;;;4.07;2.28;;;25.10;51.00;;;;;;6242798;28;20544;-71
2023/06/04 08:28:38;;;;;;;2.60;1.90;;;25.20;50.60;;;;;;6242275;28;20033;-72
2023/06/04 08:31:39;;;;;;;5.70;2.70;;;25.40;50.40;;;;;;6239938;28;20053;-72
2023/06/04 08:34:40;;;;;;;4.03;2.10;;;25.50;50.00;;;;;;6232709;28;20116;-71
2023/06/04 08:37:41;;;;;;;7.55;2.55;;;25.70;50.00;;;;;;6218267;28;20054;-71
2023/06/04 08:40:43;;;;;;;4.60;2.00;;;25.70;49.60;;;;;;6217540;28;20026;-71
2023/06/04 08:43:44;;;;;;;12.30;2.20;;;25.90;49.40;;;;;;6199736;28;20060;-73
2023/06/04 08:46:47;;;;;;;5.28;1.92;;;26.10;49.00;;;;;;6217463;28;20474;-73
2023/06/04 08:49:50;;;;;;;3.03;2.17;;;26.30;48.70;;;;;;6217370;28;20034;-71
2023/06/04 08:52:55;;;;;;;6.68;1.90;;;26.40;47.90;;;;;;6230687;28;20029;-71
2023/06/04 08:55:56;;;;;;;4.28;2.22;;;26.50;47.60;;;;;;6223961;28;20390;-72
2023/06/04 08:59:01;;;;;;;4.85;2.22;;;26.60;47.40;;;;;;6241503;28;20056;-72
2023/06/04 09:02:04;;;;;;;2.03;1.73;;;26.80;47.10;;;;;;6239750;28;20033;-72
2023/06/04 09:05:10;;;;;;;8.05;2.20;;;26.80;46.40;;;;;;6241524;28;20104;-71
2023/06/04 09:08:12;;;;;;;3.88;2.00;;;26.90;46.00;;;;;;6242145;28;20033;-71
2023/06/04 09:11:15;;;;;;;2.58;1.80;;;26.80;45.80;;;;;;6240981;28;20322;-71
2023/06/04 09:14:17;;;;;;;5.35;2.10;;;26.90;45.90;;;;;;6223635;28;20095;-71
2023/06/04 09:17:22;;;;;;;3.80;2.22;;;27.00;45.90;;;;;;6241579;28;20043;-71
2023/06/04 09:20:24;;;;;;;1.95;1.60;;;27.20;45.70;;;;;;6241065;28;20045;-73
2023/06/04 09:23:25;;;;;;;4.07;1.58;;;27.40;45.10;;;;;;6239688;28;20042;-72
2023/06/04 09:26:26;;;;;;;7.45;1.90;;;27.40;44.80;;;;;;6241475;28;20191;-71
2023/06/04 09:29:27;;;;;;;2.08;1.40;;;27.60;44.50;;;;;;6239944;28;20044;-72
2023/06/04 09:32:30;;;;;;;2.35;1.38;;;27.70;44.10;;;;;;6240553;28;20056;-71
2023/06/04 09:35:31;;;;;;;2.47;1.40;;;27.70;43.80;;;;;;6239435;28;20127;-72
2023/06/04 09:38:38;;;;;;;1.83;1.50;;;27.70;43.50;;;;;;6241263;28;20025;-71
2023/06/04 09:41:41;;;;;;;2.20;1.25;;;27.60;43.30;;;;;;6239675;28;20026;-72
2023/06/04 09:44:48;;;;;;;2.15;1.38;;;27.50;42.90;;;;;;6245054;28;20056;-71
2023/06/04 09:47:49;;;;;;;3.60;1.40;;;27.40;42.80;;;;;;6246082;28;20084;-71
2023/06/04 09:50:50;;;;;;;2.78;1.33;;;27.30;42.80;;;;;;6221332;28;20040;-72
2023/06/04 09:53:58;;;;;;;2.72;1.60;;;27.20;42.90;;;;;;6222880;28;20025;-71
2023/06/04 09:57:00;;;;;;;1.67;1.58;;;27.20;43.10;;;;;;6229788;28;20052;-72
2023/06/04 10:00:07;;;;;;;2.55;1.40;;;27.20;43.10;;;;;;6239362;28;20030;-69
2023/06/04 10:03:15;;;;;;;1.95;1.50;;;27.20;42.80;;;;;;6239119;28;20038;-71
2023/06/04 10:06:17;;;;;;;6.07;1.55;;;27.20;42.40;;;;;;6240538;28;20664;-71
2023/06/04 10:09:20;;;;;;;2.38;1.50;;;27.00;42.20;;;;;;6240183;28;20033;-72
2023/06/04 10:12:26;;;;;;;3.05;1.17;;;26.90;42.10;;;;;;6238574;28;20433;-72
2023/06/04 10:15:27;;;;;;;2.42;1.63;;;26.70;42.20;;;;;;6238972;28;20100;-71
2023/06/04 10:18:28;;;;;;;1.88;1.33;;;26.70;42.60;;;;;;6240496;28;20112;-72
2023/06/04 10:21:34;;;;;;;2.92;1.73;;;26.70;43.00;;;;;;6221993;28;20427;-72
2023/06/04 10:24:35;;;;;;;1.88;1.42;;;26.80;43.10;;;;;;6239864;28;20173;-71
2023/06/04 10:27:37;;;;;;;2.47;1.42;;;27.00;42.30;;;;;;6239768;28;20064;-74
2023/06/04 10:30:38;;;;;;;2.75;1.55;;;27.10;42.00;;;;;;6238248;28;20434;-72
2023/06/04 10:33:39;;;;;;;4.18;1.55;;;27.30;42.30;;;;;;6239394;28;20025;-71
2023/06/04 10:36:45;;;;;;;2.42;1.50;;;27.40;42.40;;;;;;6237881;28;20124;-71
2023/06/04 10:39:54;;;;;;;1.48;1.30;;;27.60;42.40;;;;;;6237811;28;20079;-72
2023/06/04 10:42:55;;;;;;;2.42;1.50;;;27.80;42.20;;;;;;6239325;28;20026;-71
2023/06/04 10:45:56;;;;;;;4.47;1.65;;;27.90;41.90;;;;;;6239729;28;20114;-70
2023/06/04 10:48:57;;;;;;;2.10;1.52;;;28.00;41.40;;;;;;6239839;28;20025;-73
2023/06/04 10:52:03;;;;;;;6.95;1.85;;;28.00;41.40;;;;;;6234405;28;20214;-71
2023/06/04 10:55:05;;;;;;;3.53;2.00;;;28.20;42.00;;;;;;6239795;28;20076;-74
2023/06/04 10:58:06;;;;;;;3.92;1.98;;;28.30;41.10;;;;;;6213577;28;20513;-72
2023/06/04 11:01:07;;;;;;;3.65;1.95;;;28.40;41.00;;;;;;6214774;28;20030;-72
2023/06/04 11:04:22;;;;;;;2.92;1.70;;;28.90;40.30;;;;;;6215148;28;20450;-71
2023/06/04 11:07:23;;;;;;;6.85;1.70;;;30.00;38.60;;;;;;6213218;28;20029;-73
2023/06/04 11:10:35;;;;;;;5.03;2.45;;;31.20;36.70;;;;;;6212979;28;20041;-73
2023/06/04 11:13:35;;;;;;;1.95;1.52;;;31.90;35.10;;;;;;6214120;28;20124;-71
2023/06/04 11:16:36;;;;;;;3.70;1.40;;;32.70;34.20;;;;;;6213041;28;20021;-77
2023/06/04 11:19:38;;;;;;;28.23;2.30;;;33.40;32.70;;;;;;6215227;28;20459;-71
2023/06/04 11:22:38;;;;;;;2.17;1.70;;;33.70;31.70;;;;;;6196928;28;20844;-72
2023/06/04 11:25:40;;;;;;;3.58;1.70;;;34.10;31.50;;;;;;6217198;28;20139;-71
2023/06/04 11:28:42;;;;;;;3.00;2.05;;;34.70;31.00;;;;;;6238048;28;20461;-71
2023/06/04 11:31:45;;;;;;;5.25;1.80;;;35.10;29.80;;;;;;6237751;28;20169;-72
2023/06/04 11:34:46;;;;;;;1.65;1.30;;;35.10;29.60;;;;;;6237755;28;20044;-72
2023/06/04 11:37:54;;;;;;;2.47;1.58;;;35.20;29.70;;;;;;6237383;28;20026;-72
2023/06/04 11:41:04;;;;;;;2.33;1.77;;;35.30;29.30;;;;;;6237339;28;20060;-73
2023/06/04 11:44:06;;;;;;;4.18;1.88;;;35.60;29.20;;;;;;6235915;28;20156;-72
2023/06/04 11:47:08;;;;;;;3.05;1.63;;;35.90;28.90;;;;;;6228317;28;20397;-72
2023/06/04 11:50:09;;;;;;;1.98;1.58;;;36.00;28.60;;;;;;6237718;28;20060;-72
2023/06/04 11:53:13;;;;;;;2.85;1.60;;;36.00;28.80;;;;;;6237652;28;20477;-72
2023/06/04 11:56:15;;;;;;;2.00;1.50;;;36.20;28.60;;;;;;6228658;28;20129;-72
2023/06/04 11:59:17;;;;;;;3.88;1.52;;;36.50;28.50;;;;;;6237989;28;20064;-72
2023/06/04 12:02:19;;;;;;;1.95;1.75;;;36.90;28.20;;;;;;6227824;28;20038;-72
2023/06/04 12:05:23;;;;;;;2.38;1.60;;;37.20;27.90;;;;;;6237784;28;20493;-72
2023/06/04 12:08:23;;;;;;;1.95;1.70;;;37.50;27.60;;;;;;6231984;28;20434;-72
2023/06/04 12:11:26;;;;;;;2.40;1.70;;;37.70;27.30;;;;;;6232130;28;20065;-72
2023/06/04 12:14:28;;;;;;;2.08;1.55;;;37.80;27.20;;;;;;6224204;28;20026;-71
2023/06/04 12:17:32;;;;;;;3.03;1.77;;;37.70;26.60;;;;;;6230787;28;20036;-73
2023/06/04 12:20:39;;;;;;;2.22;1.85;;;37.50;26.40;;;;;;6240481;28;20453;-71
2023/06/04 12:23:40;;;;;;;2.78;1.52;;;37.50;26.30;;;;;;6241261;28;20033;-73
2023/06/04 12:26:43;;;;;;;2.70;1.73;;;37.70;26.20;;;;;;6241516;28;20681;-73
2023/06/04 12:29:58;;;;;;;2.10;1.60;;;37.80;25.90;;;;;;6232432;28;20029;-72
2023/06/04 12:32:59;;;;;;;2.17;1.35;;;38.00;25.50;;;;;;6239636;28;20131;-71
2023/06/04 12:35:59;;;;;;;2.00;1.40;;;38.10;25.20;;;;;;6241187;28;20062;-73
2023/06/04 12:39:03;;;;;;;1.75;1.55;;;38.20;24.90;;;;;;6231476;28;20041;-71
2023/06/04 12:42:10;;;;;;;1.90;1.50;;;38.20;24.90;;;;;;6231165;28;20382;-72
2023/06/04 12:45:13;;;;;;;2.40;1.80;;;38.00;24.90;;;;;;6217598;28;20493;-72
2023/06/04 12:52:41;;;;;;;1.63;1.40;;;38.70;24.00;;;;;;6056235;29;20041;-72
2023/06/04 12:55:41;;;;;;;2.70;1.83;;;37.90;24.50;;;;;;6046615;29;20052;-73
2023/06/04 12:58:42;;;;;;;2.95;1.40;;;37.10;25.30;;;;;;6046831;29;20784;-71
2023/06/04 13:01:43;;;;;;;1.90;1.38;;;37.30;25.40;;;;;;6046310;29;20124;-72
2023/06/04 13:04:45;;;;;;;3.25;1.30;;;37.90;25.30;;;;;;6046458;29;20525;-72
2023/06/04 13:12:44;;;;;;;2.83;1.40;;;39.90;23.80;;;;;;6046134;29;20144;-72
2023/06/04 13:15:45;;;;;;;4.28;1.25;;;40.90;22.90;;;;;;6045750;29;20776;-71
2023/06/04 13:18:46;;;;;;;6.60;1.90;;;41.20;21.90;;;;;;6045964;29;20549;-71
2023/06/04 13:21:47;;;;;;;4.82;1.92;;;41.50;21.70;;;;;;6030399;29;20504;-71
2023/06/04 13:24:48;;;;;;;4.07;1.88;;;41.70;21.50;;;;;;6046473;29;20037;-73
2023/06/04 13:27:49;;;;;;;5.93;3.17;;;41.60;21.40;;;;;;6050551;29;20704;-71
2023/06/04 13:30:50;;;;;;;3.58;1.70;;;41.50;21.40;;;;;;6069992;29;20146;-71
2023/06/04 13:33:50;;;;;;;8.48;3.90;;;41.60;20.90;;;;;;6069236;29;20044;-72
2023/06/04 13:36:51;;;;;;;4.28;2.50;;;42.00;21.30;;;;;;6069668;29;20479;-71
2023/06/04 13:39:52;;;;;;;6.00;1.60;;;42.50;21.40;;;;;;6069492;29;20077;-70
2023/06/04 13:42:53;;;;;;;7.72;4.13;;;43.10;21.30;;;;;;6068904;29;20041;-71
2023/06/04 13:45:54;;;;;;;3.38;2.22;;;43.40;21.20;;;;;;6069567;29;20042;-71
2023/06/04 13:48:55;;;;;;;9.07;4.38;;;43.50;21.10;;;;;;6103358;29;20555;-71
2023/06/04 13:51:56;;;;;;;4.18;2.50;;;43.90;20.90;;;;;;6164329;28;20036;-72
2023/06/04 13:59:23;;;;;;;8.00;3.58;;;45.20;20.50;;;;;;6139160;29;20047;-71
2023/06/04 14:02:24;;;;;;;13.63;5.47;;;45.00;20.80;;;;;;6122856;29;20653;-71
2023/06/04 14:05:27;;;;;;;8.82;3.28;;;44.40;21.10;;;;;;6139604;29;20031;-71
2023/06/04 14:08:28;;;;;;;3.33;2.22;;;43.40;21.60;;;;;;6123519;29;20089;-72
2023/06/04 14:11:29;;;;;;;5.55;2.50;;;42.60;22.30;;;;;;6123172;29;20062;-71
2023/06/04 14:14:35;;;;;;;7.28;2.35;;;42.00;22.40;;;;;;6139376;29;20118;-71
2023/06/04 14:17:36;;;;;;;3.25;1.75;;;41.80;22.60;;;;;;6139301;29;20404;-70
2023/06/04 14:20:37;;;;;;;3.75;2.13;;;41.90;22.40;;;;;;6123150;29;20027;-70
2023/06/04 14:23:38;;;;;;;3.67;1.73;;;41.80;22.10;;;;;;6138517;29;20604;-70
2023/06/04 14:26:39;;;;;;;4.30;1.90;;;41.60;22.20;;;;;;6123190;29;20031;-71
2023/06/04 14:29:40;;;;;;;2.78;1.98;;;41.40;22.20;;;;;;6138301;28;20206;-71
2023/06/04 14:32:40;;;;;;;2.67;1.85;;;41.40;22.50;;;;;;6138594;29;20087;-71
2023/06/04 14:35:46;;;;;;;2.75;1.80;;;41.60;22.40;;;;;;6184506;28;20076;-71
2023/06/04 14:38:48;;;;;;;6.18;2.03;;;41.80;21.70;;;;;;6220221;28;20060;-71
2023/06/04 14:41:49;;;;;;;2.80;2.00;;;42.10;21.50;;;;;;6214766;28;20057;-71
2023/06/04 14:44:50;;;;;;;9.70;2.95;;;41.90;21.60;;;;;;6213258;28;20589;-71
2023/06/04 14:47:51;;;;;;;2.58;1.75;;;40.90;22.30;;;;;;6214966;28;20030;-71
2023/06/04 14:50:53;;;;;;;3.42;1.80;;;39.60;23.40;;;;;;6214843;28;20030;-70
2023/06/04 14:53:54;;;;;;;2.92;1.63;;;38.30;24.60;;;;;;6196667;28;20038;-72
2023/06/04 14:56:55;;;;;;;4.57;2.03;;;37.00;25.70;;;;;;6227483;28;20036;-71
2023/06/04 14:59:55;;;;;;;4.38;2.95;;;36.00;26.70;;;;;;6237516;28;20038;-70
2023/06/04 15:02:57;;;;;;;2.45;1.83;;;35.10;27.70;;;;;;6238481;28;20181;-70
2023/06/04 15:05:58;;;;;;;2.60;1.60;;;34.70;27.60;;;;;;6238985;28;20029;-71
2023/06/04 15:08:59;;;;;;;1.95;1.75;;;34.90;27.50;;;;;;6237279;28;20346;-71
2023/06/04 15:12:00;;;;;;;4.25;2.28;;;34.90;27.80;;;;;;6238421;28;20034;-71
2023/06/04 15:15:01;;;;;;;3.72;2.20;;;34.60;28.40;;;;;;6237506;28;20045;-71
2023/06/04 15:18:02;;;;;;;2.90;2.10;;;34.30;28.90;;;;;;6238992;28;20091;-71
2023/06/04 15:21:03;;;;;;;1.95;1.60;;;33.90;29.40;;;;;;6238649;28;20052;-71
2023/06/04 15:24:04;;;;;;;3.05;1.90;;;33.50;30.00;;;;;;6238158;28;20140;-70
2023/06/04 15:27:05;;;;;;;5.28;2.30;;;33.00;30.90;;;;;;6238127;28;20029;-71
2023/06/04 15:30:06;;;;;;;4.18;2.47;;;32.60;31.80;;;;;;6236948;28;20038;-71
2023/06/04 15:33:07;;;;;;;3.58;2.20;;;32.20;32.40;;;;;;6237829;28;20412;-70
2023/06/04 15:36:08;;;;;;;3.55;2.33;;;32.00;32.80;;;;;;6238602;28;20041;-71
2023/06/04 15:39:09;;;;;;;5.07;2.38;;;31.60;33.00;;;;;;6253355;28;20029;-71
2023/06/04 15:42:11;;;;;;;7.20;2.67;;;31.70;33.40;;;;;;6242202;28;20032;-70
2023/06/04 15:45:12;;;;;;;5.20;2.15;;;31.70;33.50;;;;;;6243130;28;20041;-71
2023/06/04 15:48:14;;;;;;;4.38;2.60;;;31.70;33.50;;;;;;6243145;28;20056;-70
2023/06/04 15:51:15;;;;;;;4.85;2.00;;;31.80;33.30;;;;;;6241038;28;20148;-71
2023/06/04 15:54:16;;;;;;;3.10;2.03;;;32.20;32.80;;;;;;6241360;28;20033;-71
2023/06/04 15:57:17;;;;;;;2.72;1.83;;;32.70;32.10;;;;;;6243030;28;20102;-71
2023/06/04 16:00:18;;;;;;;5.72;2.40;;;33.20;31.40;;;;;;6241181;28;20030;-71